Amboy, California
Current Conditions -  °F | °C
As of 10:56 PM on Saturday 25 Oct 2014 (Local Time) from KNXP Reporting Station
Clear Clear  
Wind Chill: 69°   Ceiling: Unl
Heat Index: 69°   Visibility: 10mi
Dew Point: 44°   Wind: 7mph
Humidity: 40%   Direction: 280°W
Pressure: 30.06"   Gusts: NA
Location:  34.56°N, 115.75°W
Report Text: KNXP 260556Z AUTO 28006KT 10SM CLR 21/07 A3006 RMK AO2 SLP147 LAST AUGMENTED T02060067 10289 20200 50005
Loading
Personal Weather Stations






























Interactive Weather Map
Tropical Storm Tracking
New forecast layout! Learn more

10-Day Weather Forecast

Advertisements
Track Severe Weather on mobile